aviador You're here:

YPGV Decoded Metar

GOVE AIRPORT in AUSTRALIA
Report Time2017-09-23 18:00:00
UTC Time2017-09-23 18:23:58
Flight Rules vfr VFR
WindCalm
Visibility9999 m
Phenomena:N/A
Clouds:N/A
Expected CloudBase > 800 ft AGL from Temp-Dew spread
CeilingNone
Temp21°C (ISA +6)
Dew Point19°C (88% RH)
QNH1011 hPa
Density Alt1,280 ft
Elevation180 ft
Report Wrong Elevation
Raw Report
METAR YPGV 231800Z AUTO 00000KT 9999 // NCD 21/19 Q1011=

Extra information for YPGV:More info

Metar Taf Metar & Taf Last 4 Metars F.Rules Stats Wind Profile Meteogram Temp Stats Airport Information Weather charts Add Link Nearby VenuesMetar ALERT Operation Metar Decoded Social comments